メインページ
METAR-TAF:

METAR-TAF

空港 :

Smithers, ブリティッシュコロンビア州, カナダ

緯度: 54-49N, 経度: 127-11W, 海抜: 523m

現時点の気象観測

当レポートは1時間6分前の07:00(UTC)に作成
変向風 5kt
気温 0°C
湿度 93%
気圧 1009 hPa
視程: 14.5km
高度6500ftの曇り

METAR: CYYD 220700Z AUTO VRB05KT 9SM OVC065 00/M01 A2981 RMK SLP115

時間: 00:06 (08:06 UTC)

予報

当レポートは7時間28分前の00:38(UTC)に作成
予報は22日の 01時(UTC)から 22日の 06時(UTC)まで有効
変向風 3kt
視程: 10km
高度4000ftの雲は散在している
高度9000ftの千切れ雲あり
22日の 01時(UTC)から 22日の 04時(UTC)まで一時的に
高度4000ftの千切れ雲あり
22日の 0400時(UTC)から
変向風 3kt
視程: 10km
高度2000ftの雲は散在している
高度5000ftの曇り
22日の 04時(UTC)から 22日の 06時(UTC)まで一時的に
視程: 8.0km
高度2000ftの曇り
小雨, 雪, 靄

TAF: CYYD 220038Z 2201/2206 VRB03KT P6SM SCT040 BKN090 TEMPO 2201/2204 BKN040 FM220400 VRB03KT P6SM SCT020 OVC050 TEMPO 2204/2206 5SM -RASN BR OVC020 RMK NXT FCST WILL BE ISSUED AT 221345Z

4,000以上の空港の気象観測と天気予報(METAR報とTAF報)

利用可能な観測所は地図上に黄色い丸と赤い丸で示す。

丸の上にカーソルを重ねると観測所名を参照できる。

次にクリックすると気象観測と天気予報を参照できる。

マップの切り替え:黒色「×」印の緑ボタンをクリックして拡大、「-」印の緑ボタンをクリックして縮小、緑色の三角印をクリックして隣りの地図に切り替え


METAR-TAF: